Time;durP1;ratioP1;P1;durP2;ratioP2;P2;SDS_P1;SDS_P2;PMS_P1;PMS_P2;Temp;Humidity;BMP_temperature;BMP_pressure;BME280_temperature;BME280_humidity;BME280_pressure;Samples;Min_cycle;Max_cycle;Signal;HPM_P1;HPM_P2
2022/07/05 00:01:10;;;;;;;2.08;1.20;;;18.30;99.90;;;;;;5076145;28;20379;-68
2022/07/05 00:03:36;;;;;;;3.83;1.02;;;18.40;99.90;;;;;;5076105;28;20040;-68
2022/07/05 00:06:01;;;;;;;2.63;1.08;;;18.40;99.90;;;;;;5075900;28;20055;-68
2022/07/05 00:08:27;;;;;;;1.63;1.13;;;18.40;99.90;;;;;;5075957;28;20037;-68
2022/07/05 00:10:53;;;;;;;4.10;1.30;;;18.60;99.90;;;;;;5075887;28;20407;-68
2022/07/05 00:13:19;;;;;;;8.82;1.60;;;18.70;99.90;;;;;;5075898;28;20068;-67
2022/07/05 00:15:45;;;;;;;11.38;1.52;;;18.80;99.90;;;;;;5075769;28;20040;-68
2022/07/05 00:18:10;;;;;;;3.67;1.02;;;18.70;99.90;;;;;;5075726;28;20028;-67
2022/07/05 00:20:36;;;;;;;5.07;0.90;;;18.80;99.90;;;;;;5075476;28;20058;-67
2022/07/05 00:23:02;;;;;;;3.67;1.38;;;18.70;99.90;;;;;;5075030;28;20055;-68
2022/07/05 00:25:28;;;;;;;2.58;0.90;;;18.80;99.90;;;;;;5075465;28;20044;-69
2022/07/05 00:27:53;;;;;;;1.75;1.15;;;18.70;99.90;;;;;;5075465;28;20044;-69
2022/07/05 00:30:19;;;;;;;6.35;1.83;;;18.70;99.90;;;;;;5075378;28;20530;-69
2022/07/05 00:32:45;;;;;;;5.38;1.33;;;18.80;99.90;;;;;;5075516;28;20105;-70
2022/07/05 00:35:11;;;;;;;2.17;1.20;;;18.80;99.90;;;;;;5075362;28;20071;-69
2022/07/05 00:37:37;;;;;;;2.15;0.90;;;18.80;99.90;;;;;;5075428;28;20471;-69
2022/07/05 00:40:04;;;;;;;7.90;0.95;;;18.70;99.90;;;;;;5073914;28;20084;-70
2022/07/05 00:42:30;;;;;;;8.30;1.35;;;18.80;99.90;;;;;;5074951;28;20032;-70
2022/07/05 00:44:56;;;;;;;1.13;0.70;;;18.70;99.90;;;;;;5075267;28;20040;-70
2022/07/05 00:47:23;;;;;;;1.67;1.00;;;18.80;99.90;;;;;;5075187;28;20598;-69
2022/07/05 00:49:49;;;;;;;4.03;1.10;;;18.70;99.90;;;;;;5075062;28;20032;-69
2022/07/05 00:52:15;;;;;;;7.55;1.30;;;18.70;99.90;;;;;;5075020;28;20040;-69
2022/07/05 00:54:42;;;;;;;12.85;1.40;;;18.60;99.90;;;;;;5074892;28;20165;-68
2022/07/05 00:57:08;;;;;;;2.63;0.90;;;18.60;99.90;;;;;;5074797;28;20193;-68
2022/07/05 00:59:34;;;;;;;3.88;1.13;;;18.60;99.90;;;;;;5074760;28;20555;-68
2022/07/05 01:02:00;;;;;;;5.30;1.30;;;18.60;99.90;;;;;;5074817;28;20071;-69
2022/07/05 01:04:26;;;;;;;3.17;0.95;;;18.60;99.90;;;;;;5074631;28;20106;-69
2022/07/05 01:06:53;;;;;;;4.25;1.10;;;18.60;99.90;;;;;;5074941;28;20040;-69
2022/07/05 01:09:20;;;;;;;1.73;1.02;;;18.60;99.90;;;;;;5074747;28;20048;-69
2022/07/05 01:11:48;;;;;;;2.83;1.20;;;18.60;99.90;;;;;;5074690;28;20033;-71
2022/07/05 01:14:16;;;;;;;2.30;0.90;;;18.60;99.90;;;;;;5074653;28;20526;-70
2022/07/05 01:16:43;;;;;;;3.35;1.05;;;18.50;99.90;;;;;;5074603;28;20036;-72
2022/07/05 01:19:11;;;;;;;1.00;0.88;;;18.50;99.90;;;;;;5074419;28;20055;-70
2022/07/05 01:21:41;;;;;;;3.92;1.10;;;18.40;99.90;;;;;;5074627;28;20063;-70
2022/07/05 01:24:09;;;;;;;2.55;1.00;;;18.40;99.90;;;;;;5074376;28;20041;-68
2022/07/05 01:26:36;;;;;;;1.70;0.82;;;18.40;99.90;;;;;;5074469;28;20040;-67
2022/07/05 01:29:02;;;;;;;2.15;1.10;;;18.40;99.90;;;;;;5074359;28;20142;-68
2022/07/05 01:31:28;;;;;;;4.35;1.02;;;18.40;99.90;;;;;;5070951;28;20085;-67
2022/07/05 01:33:54;;;;;;;1.23;0.95;;;18.40;99.90;;;;;;5054249;28;20033;-67
2022/07/05 01:36:20;;;;;;;1.75;1.02;;;18.40;99.90;;;;;;5053473;28;20037;-68
2022/07/05 01:38:46;;;;;;;1.48;1.17;;;18.40;99.90;;;;;;5054445;28;20127;-68
2022/07/05 01:41:12;;;;;;;2.60;1.13;;;18.30;99.90;;;;;;5054359;28;20049;-68
2022/07/05 01:43:38;;;;;;;5.20;1.27;;;18.20;99.90;;;;;;5054236;28;20033;-68
2022/07/05 01:46:08;;;;;;;3.38;0.90;;;18.10;99.90;;;;;;5054081;28;20496;-68
2022/07/05 01:48:36;;;;;;;2.45;1.00;;;18.20;99.90;;;;;;5054189;28;20433;-68
2022/07/05 01:51:05;;;;;;;3.05;1.15;;;18.20;99.90;;;;;;5054168;28;20040;-69
2022/07/05 01:53:33;;;;;;;2.45;1.45;;;18.10;99.90;;;;;;5052767;28;20127;-68
2022/07/05 01:56:03;;;;;;;1.63;0.77;;;18.20;99.90;;;;;;5054136;28;20033;-68
2022/07/05 01:58:30;;;;;;;6.60;1.33;;;18.20;99.90;;;;;;5053733;28;20035;-68
2022/07/05 02:00:57;;;;;;;2.88;1.23;;;18.20;99.90;;;;;;5053732;28;20037;-68
2022/07/05 02:03:23;;;;;;;1.98;1.20;;;18.30;99.90;;;;;;5053802;28;20044;-67
2022/07/05 02:05:49;;;;;;;3.00;1.00;;;18.30;99.90;;;;;;5053791;28;20581;-66
2022/07/05 02:08:16;;;;;;;1.52;0.90;;;18.20;99.90;;;;;;5054915;28;20037;-67
2022/07/05 02:10:43;;;;;;;4.57;1.20;;;18.20;99.90;;;;;;5073556;28;20493;-69
2022/07/05 02:13:09;;;;;;;3.70;1.20;;;18.20;99.90;;;;;;5073668;28;20483;-67
2022/07/05 02:15:37;;;;;;;3.20;1.02;;;18.00;99.90;;;;;;5073912;28;20090;-67
2022/07/05 02:18:03;;;;;;;3.20;1.40;;;17.90;99.90;;;;;;5073943;28;20653;-66
2022/07/05 02:20:31;;;;;;;1.33;0.98;;;17.90;99.90;;;;;;5073713;28;20411;-67
2022/07/05 02:22:57;;;;;;;5.25;1.00;;;17.90;99.90;;;;;;5073727;28;20120;-67
2022/07/05 02:25:23;;;;;;;2.85;0.70;;;17.90;99.90;;;;;;5073738;28;20558;-67
2022/07/05 02:27:51;;;;;;;3.15;1.40;;;17.80;99.90;;;;;;5073706;28;20021;-67
2022/07/05 02:30:17;;;;;;;3.83;1.00;;;17.80;99.90;;;;;;5073616;28;20044;-66
2022/07/05 02:32:43;;;;;;;2.95;1.08;;;17.80;99.90;;;;;;5073825;28;20518;-66
2022/07/05 02:35:10;;;;;;;4.03;1.05;;;17.70;99.90;;;;;;5073748;28;20051;-67
2022/07/05 02:37:36;;;;;;;9.48;1.15;;;17.70;99.90;;;;;;5073666;28;20117;-67
2022/07/05 02:40:04;;;;;;;1.00;0.73;;;17.70;99.90;;;;;;5073581;28;20059;-67
2022/07/05 02:42:30;;;;;;;2.35;1.00;;;17.70;99.90;;;;;;5073348;28;20032;-67
2022/07/05 02:44:55;;;;;;;1.92;0.88;;;17.70;99.90;;;;;;5073651;28;20040;-67
2022/07/05 02:47:21;;;;;;;6.60;0.88;;;17.70;99.90;;;;;;5075686;28;20139;-69
2022/07/05 02:49:47;;;;;;;2.30;1.00;;;17.60;99.90;;;;;;5077406;28;20067;-70
2022/07/05 02:52:13;;;;;;;6.57;0.95;;;17.50;99.90;;;;;;5077310;28;20105;-70
2022/07/05 02:54:39;;;;;;;3.92;1.00;;;17.50;99.90;;;;;;5077166;28;20488;-70
2022/07/05 02:57:05;;;;;;;3.60;0.85;;;17.50;99.90;;;;;;5077197;28;20469;-70
2022/07/05 02:59:31;;;;;;;4.30;1.10;;;17.50;99.90;;;;;;5077169;28;20075;-70
2022/07/05 03:01:57;;;;;;;2.78;1.20;;;17.50;99.90;;;;;;5077297;28;20044;-70
2022/07/05 03:04:23;;;;;;;2.58;1.15;;;17.50;99.90;;;;;;5077319;28;20060;-70
2022/07/05 03:06:48;;;;;;;3.35;0.80;;;17.50;99.90;;;;;;5077064;28;20040;-69
2022/07/05 03:09:14;;;;;;;2.53;1.10;;;17.40;99.90;;;;;;5077063;28;20395;-70
2022/07/05 03:11:40;;;;;;;1.85;1.00;;;17.40;99.90;;;;;;5076928;28;20040;-67
2022/07/05 03:14:05;;;;;;;3.30;1.17;;;17.30;99.90;;;;;;5077046;28;20051;-67
2022/07/05 03:16:32;;;;;;;2.78;0.90;;;17.40;99.90;;;;;;5076886;28;20053;-69
2022/07/05 03:18:58;;;;;;;1.63;1.00;;;17.40;99.90;;;;;;5076839;28;20040;-68
2022/07/05 03:21:23;;;;;;;4.22;1.15;;;17.40;99.90;;;;;;5076836;28;20040;-68
2022/07/05 03:23:49;;;;;;;3.78;1.42;;;17.40;99.90;;;;;;5076998;28;20067;-67
2022/07/05 03:26:15;;;;;;;1.40;0.70;;;17.40;99.90;;;;;;5076694;28;20468;-68
2022/07/05 03:28:40;;;;;;;1.60;0.85;;;17.50;99.90;;;;;;5076941;28;20040;-68
2022/07/05 03:31:06;;;;;;;7.55;1.27;;;17.40;99.90;;;;;;5076631;28;20441;-68
2022/07/05 03:33:32;;;;;;;4.78;1.10;;;17.30;99.90;;;;;;5076593;28;20032;-67
2022/07/05 03:35:58;;;;;;;2.10;0.80;;;17.40;99.90;;;;;;5075441;28;20402;-65
2022/07/05 03:38:24;;;;;;;1.88;0.90;;;17.40;99.90;;;;;;5076584;28;20515;-67
2022/07/05 03:40:50;;;;;;;3.88;0.82;;;17.50;99.90;;;;;;5076394;28;20122;-68
2022/07/05 03:43:15;;;;;;;5.28;1.00;;;17.40;99.90;;;;;;5076478;28;20043;-67
2022/07/05 03:45:42;;;;;;;4.82;1.00;;;17.40;99.90;;;;;;5076383;28;20120;-67
2022/07/05 03:48:08;;;;;;;4.38;1.33;;;17.40;99.90;;;;;;5076348;28;20495;-67
2022/07/05 03:50:34;;;;;;;9.23;1.08;;;17.30;99.90;;;;;;5076340;28;20066;-67
2022/07/05 03:52:59;;;;;;;3.80;0.70;;;17.30;99.90;;;;;;5076283;28;20040;-68
2022/07/05 03:55:25;;;;;;;1.58;1.00;;;17.30;99.90;;;;;;5074636;28;20079;-68
2022/07/05 03:57:51;;;;;;;2.70;0.85;;;17.30;99.90;;;;;;5075439;28;20041;-68
2022/07/05 04:00:17;;;;;;;2.75;1.10;;;17.20;99.90;;;;;;5074500;28;20080;-68
2022/07/05 04:02:42;;;;;;;5.70;1.13;;;17.10;99.90;;;;;;5076104;28;20040;-68
2022/07/05 04:05:08;;;;;;;3.13;0.95;;;16.90;99.90;;;;;;5076051;28;20395;-68
2022/07/05 04:07:34;;;;;;;3.05;1.13;;;17.10;99.90;;;;;;5076057;28;20392;-68
2022/07/05 04:10:00;;;;;;;3.88;1.00;;;17.00;99.90;;;;;;5075861;28;20037;-68
2022/07/05 04:12:26;;;;;;;5.78;1.40;;;16.90;99.90;;;;;;5075827;28;20411;-68
2022/07/05 04:14:52;;;;;;;2.10;0.95;;;16.90;99.90;;;;;;5075887;28;20036;-68
2022/07/05 04:17:18;;;;;;;4.90;1.10;;;16.90;99.90;;;;;;5074798;28;20090;-68
2022/07/05 04:19:44;;;;;;;2.85;1.08;;;16.80;99.90;;;;;;5057573;28;20056;-68
2022/07/05 04:22:10;;;;;;;4.28;1.00;;;16.80;99.90;;;;;;5055789;28;20392;-68
2022/07/05 04:25:16;;;;;;;2.33;1.25;;;16.80;99.90;;;;;;5055577;28;20033;-69
2022/07/05 04:27:21;;;;;;;1.48;0.90;;;16.70;99.90;;;;;;5055312;28;20040;-68
2022/07/05 04:29:47;;;;;;;4.18;0.80;;;16.70;99.90;;;;;;5055531;28;20052;-69
2022/07/05 04:32:12;;;;;;;4.53;1.27;;;16.60;99.90;;;;;;5055397;28;20127;-68
2022/07/05 04:34:38;;;;;;;4.07;1.25;;;16.60;99.90;;;;;;5054051;28;20045;-68
2022/07/05 04:37:04;;;;;;;1.30;0.95;;;16.70;99.90;;;;;;5073295;28;20036;-67
2022/07/05 04:39:30;;;;;;;5.32;1.15;;;16.70;99.90;;;;;;5075355;28;20052;-68
2022/07/05 04:41:55;;;;;;;3.38;1.10;;;16.60;99.90;;;;;;5075191;28;20043;-68
2022/07/05 04:44:21;;;;;;;1.90;0.93;;;16.50;99.90;;;;;;5075066;28;20514;-67
2022/07/05 04:46:47;;;;;;;3.70;0.88;;;16.60;99.90;;;;;;5075070;28;20028;-68
2022/07/05 04:49:12;;;;;;;9.57;1.05;;;16.50;99.90;;;;;;5075172;28;20032;-68
2022/07/05 04:51:38;;;;;;;4.10;0.88;;;16.70;99.90;;;;;;5074894;28;20114;-69
2022/07/05 04:54:04;;;;;;;7.07;1.38;;;16.70;99.90;;;;;;5075061;28;20024;-66
2022/07/05 04:56:30;;;;;;;3.35;1.17;;;16.90;99.90;;;;;;5074922;28;20135;-67
2022/07/05 04:58:55;;;;;;;3.65;1.58;;;17.00;99.90;;;;;;5074843;28;20093;-68
2022/07/05 05:01:21;;;;;;;4.05;0.90;;;17.00;99.90;;;;;;5074973;28;20044;-67
2022/07/05 05:03:47;;;;;;;3.47;1.23;;;17.00;99.90;;;;;;5074841;28;20119;-67
2022/07/05 05:06:14;;;;;;;2.85;1.10;;;17.00;99.90;;;;;;5074540;28;20043;-68
2022/07/05 05:08:41;;;;;;;4.55;0.90;;;17.10;99.90;;;;;;5074730;28;20147;-68
2022/07/05 05:11:07;;;;;;;4.57;1.10;;;17.20;99.90;;;;;;5074427;28;20043;-67
2022/07/05 05:13:33;;;;;;;2.72;0.88;;;17.40;99.90;;;;;;5074568;28;20503;-67
2022/07/05 05:15:59;;;;;;;5.10;0.85;;;17.50;99.90;;;;;;5074783;28;20042;-67
2022/07/05 05:18:27;;;;;;;3.25;0.88;;;17.50;99.90;;;;;;5074730;28;20036;-67
2022/07/05 05:20:55;;;;;;;10.25;1.23;;;17.70;99.90;;;;;;5074297;28;20056;-67
2022/07/05 05:23:22;;;;;;;2.25;0.90;;;17.70;99.90;;;;;;5074547;28;20036;-67
2022/07/05 05:25:48;;;;;;;8.23;1.17;;;17.90;99.90;;;;;;5074566;28;20186;-67
2022/07/05 05:28:14;;;;;;;6.32;1.83;;;18.00;99.90;;;;;;5074553;28;20044;-67
2022/07/05 05:30:40;;;;;;;1.80;1.13;;;18.30;99.90;;;;;;5074290;28;20032;-67
2022/07/05 05:33:05;;;;;;;2.80;0.90;;;18.20;99.90;;;;;;5071539;28;20040;-67
2022/07/05 05:35:31;;;;;;;5.60;0.75;;;18.30;99.90;;;;;;5074291;28;20036;-67
2022/07/05 05:37:57;;;;;;;2.88;1.02;;;18.50;99.90;;;;;;5072852;28;20039;-67
2022/07/05 05:40:25;;;;;;;2.60;0.70;;;18.50;99.90;;;;;;5074274;28;20159;-67
2022/07/05 05:42:52;;;;;;;13.27;1.33;;;19.10;99.90;;;;;;5073239;28;20059;-67
2022/07/05 05:45:19;;;;;;;2.42;0.68;;;19.40;99.90;;;;;;5074038;28;20123;-67
2022/07/05 05:47:50;;;;;;;2.72;1.00;;;19.50;99.90;;;;;;5074147;28;20040;-67
2022/07/05 05:50:25;;;;;;;6.80;1.10;;;19.50;99.90;;;;;;5074228;28;20048;-67
2022/07/05 05:52:51;;;;;;;3.95;0.70;;;19.70;99.90;;;;;;5074197;28;20047;-67
2022/07/05 05:55:18;;;;;;;4.30;0.68;;;19.50;99.90;;;;;;5074132;28;20044;-67
2022/07/05 05:57:44;;;;;;;7.00;1.33;;;20.10;99.90;;;;;;5074209;28;20396;-68
2022/07/05 06:00:11;;;;;;;3.30;0.88;;;20.30;99.90;;;;;;5073967;28;20052;-67
2022/07/05 06:02:36;;;;;;;1.67;0.63;;;20.10;99.90;;;;;;5073998;28;20032;-67
2022/07/05 06:05:02;;;;;;;3.20;0.77;;;20.00;99.90;;;;;;5073906;28;20089;-67
2022/07/05 06:07:28;;;;;;;6.57;0.93;;;20.40;99.90;;;;;;5073829;28;20162;-68
2022/07/05 06:09:54;;;;;;;5.78;1.08;;;20.80;99.90;;;;;;5073886;28;20494;-67
2022/07/05 06:12:20;;;;;;;5.60;1.00;;;20.80;99.90;;;;;;5073857;28;20041;-68
2022/07/05 06:14:46;;;;;;;3.25;0.80;;;;;;;;;;5073995;28;20050;-68
2022/07/05 06:17:12;;;;;;;6.78;0.80;;;21.30;99.90;;;;;;5073920;28;20037;-68
2022/07/05 06:19:37;;;;;;;1.33;0.60;;;21.30;99.90;;;;;;5073894;28;20562;-67
2022/07/05 06:22:03;;;;;;;5.75;0.82;;;21.80;99.90;;;;;;5072703;28;20040;-67
2022/07/05 06:24:29;;;;;;;4.93;1.05;;;21.80;99.90;;;;;;5056646;28;20051;-67
2022/07/05 06:26:55;;;;;;;9.68;0.90;;;21.70;99.90;;;;;;5057806;28;20051;-67
2022/07/05 06:29:21;;;;;;;2.03;0.70;;;21.40;99.90;;;;;;5057717;28;20543;-67
2022/07/05 06:31:46;;;;;;;8.85;0.60;;;21.90;99.90;;;;;;5057694;28;20049;-67
2022/07/05 06:34:12;;;;;;;6.72;0.95;;;22.00;99.90;;;;;;5057412;28;20052;-67
2022/07/05 06:36:38;;;;;;;7.72;1.27;;;21.80;99.90;;;;;;5056892;28;20116;-67
2022/07/05 06:39:03;;;;;;;6.05;1.00;;;22.00;99.90;;;;;;5058937;28;20098;-67
2022/07/05 06:41:29;;;;;;;7.47;1.23;;;22.10;99.90;;;;;;5077516;28;20044;-68
2022/07/05 06:43:55;;;;;;;4.88;0.77;;;22.00;98.80;;;;;;5077598;28;20372;-68
2022/07/05 06:46:20;;;;;;;5.38;0.65;;;21.80;97.80;;;;;;5077577;28;20043;-68
2022/07/05 06:48:46;;;;;;;7.53;0.70;;;21.90;98.10;;;;;;5077523;28;20036;-68
2022/07/05 06:51:12;;;;;;;5.22;0.55;;;21.90;98.10;;;;;;5077323;28;20040;-68
2022/07/05 06:53:38;;;;;;;5.57;0.50;;;21.70;97.10;;;;;;5077360;28;20036;-68
2022/07/05 06:56:04;;;;;;;3.35;0.90;;;21.60;97.30;;;;;;5077392;28;20383;-67
2022/07/05 06:58:29;;;;;;;7.13;0.98;;;21.60;97.20;;;;;;5077280;28;20040;-67
2022/07/05 07:00:55;;;;;;;2.92;0.82;;;21.40;97.30;;;;;;5077118;28;20036;-67
2022/07/05 07:03:21;;;;;;;4.80;1.15;;;21.50;97.60;;;;;;5077126;28;20032;-68
2022/07/05 07:05:47;;;;;;;3.30;0.70;;;21.80;97.60;;;;;;5076990;28;20124;-67
2022/07/05 07:10:57;;;;;;;2.47;0.70;;;21.70;97.00;;;;;;5077146;28;20048;-68
2022/07/05 07:13:22;;;;;;;1.90;0.82;;;21.70;97.20;;;;;;5076994;28;20032;-67
2022/07/05 07:15:48;;;;;;;3.33;0.70;;;22.10;98.00;;;;;;5077048;28;20045;-67
2022/07/05 07:18:15;;;;;;;3.10;0.73;;;21.80;97.10;;;;;;5076904;28;20036;-68
2022/07/05 07:20:41;;;;;;;3.22;0.88;;;21.80;97.00;;;;;;5076967;28;20459;-67
2022/07/05 07:23:07;;;;;;;4.40;0.80;;;21.80;96.80;;;;;;5076898;28;20060;-67
2022/07/05 07:25:33;;;;;;;11.63;0.70;;;21.70;96.40;;;;;;5076761;28;20075;-67
2022/07/05 07:27:58;;;;;;;4.13;0.80;;;21.80;96.70;;;;;;5076664;28;20056;-67
2022/07/05 07:30:26;;;;;;;4.78;0.80;;;22.10;97.80;;;;;;5076560;28;20036;-67
2022/07/05 07:32:53;;;;;;;3.55;0.60;;;22.10;96.10;;;;;;5075526;28;20128;-67
2022/07/05 07:35:19;;;;;;;10.30;0.88;;;22.10;95.90;;;;;;5076334;28;20047;-67
2022/07/05 07:37:44;;;;;;;4.32;0.80;;;22.20;96.10;;;;;;5076678;28;20032;-67
2022/07/05 07:40:10;;;;;;;3.47;0.60;;;22.00;96.60;;;;;;5076344;28;20402;-67
2022/07/05 07:42:37;;;;;;;2.53;0.60;;;22.10;96.90;;;;;;5076308;28;20060;-67
2022/07/05 07:45:04;;;;;;;4.03;0.70;;;22.30;97.20;;;;;;5076702;28;20036;-67
2022/07/05 07:47:30;;;;;;;6.53;0.57;;;22.30;96.00;;;;;;5076724;28;20119;-67
2022/07/05 07:49:56;;;;;;;2.88;0.88;;;22.10;96.10;;;;;;5076317;28;20395;-67
2022/07/05 07:52:22;;;;;;;3.53;0.77;;;22.30;96.30;;;;;;5076149;28;20036;-67
2022/07/05 07:54:48;;;;;;;8.10;0.75;;;22.40;95.80;;;;;;5076047;28;20044;-68
2022/07/05 07:57:14;;;;;;;4.00;0.90;;;22.50;95.60;;;;;;5076122;28;20033;-68
2022/07/05 07:59:39;;;;;;;6.57;1.13;;;22.70;96.00;;;;;;5075972;28;20125;-67
2022/07/05 08:02:06;;;;;;;4.45;0.77;;;22.60;95.30;;;;;;5076128;28;20032;-67
2022/07/05 08:04:32;;;;;;;1.33;0.63;;;22.70;95.10;;;;;;5076020;28;20053;-67
2022/07/05 08:06:57;;;;;;;4.28;0.90;;;22.30;94.20;;;;;;5076252;28;20032;-67
2022/07/05 08:09:23;;;;;;;5.95;0.90;;;22.40;95.40;;;;;;5074564;28;20051;-67
2022/07/05 08:11:49;;;;;;;1.92;0.80;;;22.40;94.90;;;;;;5075841;28;20063;-68
2022/07/05 08:14:18;;;;;;;3.28;0.98;;;22.70;95.30;;;;;;5075959;28;20144;-67
2022/07/05 08:16:46;;;;;;;5.15;0.70;;;22.70;95.10;;;;;;5075873;28;20040;-68
2022/07/05 08:21:56;;;;;;;10.23;1.05;;;23.10;94.20;;;;;;5075674;28;20079;-67
2022/07/05 08:24:22;;;;;;;3.05;0.60;;;23.20;94.30;;;;;;5075761;28;20043;-68
2022/07/05 08:26:48;;;;;;;2.35;0.70;;;23.30;94.10;;;;;;5075444;28;20041;-68
2022/07/05 08:29:14;;;;;;;5.20;0.77;;;23.40;94.70;;;;;;5075573;28;20075;-67
2022/07/05 08:31:43;;;;;;;3.30;0.77;;;23.10;93.60;;;;;;5075442;28;20044;-67
2022/07/05 08:34:09;;;;;;;7.00;1.42;;;23.10;93.50;;;;;;5075578;28;20064;-68
2022/07/05 08:36:35;;;;;;;4.05;0.70;;;23.60;93.80;;;;;;5075483;28;20071;-67
2022/07/05 08:39:02;;;;;;;4.57;1.17;;;23.20;93.40;;;;;;5075345;28;20044;-68
2022/07/05 08:41:29;;;;;;;3.47;0.95;;;24.00;93.10;;;;;;5075146;28;20045;-68
2022/07/05 08:43:57;;;;;;;4.20;0.70;;;23.50;93.50;;;;;;5074994;28;20040;-67
2022/07/05 08:46:25;;;;;;;6.57;0.85;;;23.50;94.30;;;;;;5075215;28;20395;-67
2022/07/05 08:48:51;;;;;;;3.45;0.80;;;23.40;93.20;;;;;;5075304;28;20521;-67
2022/07/05 08:51:21;;;;;;;2.67;0.93;;;23.40;94.00;;;;;;5074932;28;20125;-68
2022/07/05 08:53:48;;;;;;;2.70;0.85;;;23.40;93.40;;;;;;5075217;28;20042;-67
2022/07/05 08:56:15;;;;;;;7.47;0.93;;;23.90;92.90;;;;;;5074906;28;20048;-67
2022/07/05 08:58:41;;;;;;;2.15;0.52;;;24.10;93.30;;;;;;5075101;28;20078;-68
2022/07/05 09:01:09;;;;;;;6.78;1.10;;;24.30;93.00;;;;;;5075050;28;20083;-67
2022/07/05 09:03:42;;;;;;;1.63;0.55;;;24.60;93.80;;;;;;5074954;28;20047;-67
2022/07/05 09:06:09;;;;;;;6.75;0.80;;;23.70;96.70;;;;;;5075007;28;20048;-67
2022/07/05 09:08:40;;;;;;;2.80;0.60;;;23.00;93.40;;;;;;5074913;28;20040;-67
2022/07/05 09:11:14;;;;;;;2.53;0.90;;;23.40;93.70;;;;;;5074678;28;20499;-67
2022/07/05 09:13:49;;;;;;;8.10;0.75;;;23.70;94.00;;;;;;5074548;28;20040;-67
2022/07/05 09:16:15;;;;;;;5.30;0.45;;;23.40;92.70;;;;;;5074642;28;20043;-67
2022/07/05 09:18:46;;;;;;;7.45;0.88;;;23.60;93.20;;;;;;5074729;28;20092;-66
2022/07/05 09:21:20;;;;;;;3.50;0.70;;;23.70;93.00;;;;;;5074724;28;20045;-68
2022/07/05 09:23:56;;;;;;;2.60;0.60;;;23.80;93.20;;;;;;5074616;28;20039;-67
2022/07/05 09:26:44;;;;;;;2.40;0.80;;;23.70;93.00;;;;;;5074563;28;20051;-67
2022/07/05 09:29:12;;;;;;;13.80;7.50;;;23.90;93.70;;;;;;5074715;28;20064;-67
2022/07/05 09:31:41;;;;;;;5.22;3.00;;;23.80;92.80;;;;;;5074194;28;20044;-67
2022/07/05 09:34:08;;;;;;;12.43;5.75;;;23.50;92.10;;;;;;5074315;28;20392;-67
2022/07/05 09:36:58;;;;;;;22.67;10.20;;;23.90;93.60;;;;;;5074470;28;20044;-68
2022/07/05 09:39:29;;;;;;;9.23;4.20;;;23.60;92.60;;;;;;5074646;28;20056;-67
2022/07/05 09:42:11;;;;;;;9.63;1.30;;;23.60;93.10;;;;;;5074240;28;20041;-67
2022/07/05 09:44:41;;;;;;;7.70;0.98;;;23.80;92.80;;;;;;5074181;28;20037;-67
2022/07/05 09:47:13;;;;;;;16.60;6.63;;;24.10;92.30;;;;;;5074230;28;20127;-67
2022/07/05 09:49:47;;;;;;;5.35;1.48;;;23.90;93.10;;;;;;5074105;28;20037;-68
2022/07/05 09:52:27;;;;;;;7.22;1.02;;;24.00;93.50;;;;;;5074060;28;20044;-67
2022/07/05 09:55:13;;;;;;;5.78;0.70;;;24.10;92.00;;;;;;5074123;28;20036;-67
2022/07/05 09:58:07;;;;;;;3.50;1.10;;;24.30;92.30;;;;;;5073326;28;20036;-67
2022/07/05 10:00:34;;;;;;;6.00;0.73;;;24.20;92.70;;;;;;5073973;28;20048;-67
2022/07/05 10:03:02;;;;;;;6.90;0.80;;;24.10;92.70;;;;;;5074074;28;20537;-67
2022/07/05 10:05:30;;;;;;;2.75;1.10;;;24.20;92.80;;;;;;5073925;28;20047;-67
2022/07/05 10:07:58;;;;;;;2.85;0.70;;;24.10;92.40;;;;;;5073966;28;20029;-68
2022/07/05 10:10:29;;;;;;;9.77;1.05;;;24.40;92.80;;;;;;5073761;28;20048;-67
2022/07/05 10:13:01;;;;;;;5.72;0.80;;;24.50;92.80;;;;;;5073918;28;20427;-67
2022/07/05 10:15:30;;;;;;;4.10;1.27;;;24.40;91.60;;;;;;5066486;28;20167;-67
2022/07/05 10:18:00;;;;;;;4.13;0.75;;;24.40;92.50;;;;;;5053849;28;20049;-67
2022/07/05 10:20:43;;;;;;;5.07;0.73;;;24.10;92.10;;;;;;5053699;28;20049;-67
2022/07/05 10:23:14;;;;;;;5.57;0.60;;;24.40;92.20;;;;;;5053906;28;20064;-67
2022/07/05 10:25:42;;;;;;;6.05;1.10;;;24.70;90.80;;;;;;5053819;28;20052;-68
2022/07/05 10:28:09;;;;;;;4.80;0.82;;;24.50;91.40;;;;;;5053817;28;20041;-67
2022/07/05 10:30:36;;;;;;;5.15;0.82;;;24.30;91.00;;;;;;5053731;28;20033;-67
2022/07/05 10:33:03;;;;;;;1.63;0.52;;;25.10;93.80;;;;;;5053775;28;20041;-67
2022/07/05 10:35:29;;;;;;;6.20;1.10;;;25.70;90.10;;;;;;5053682;28;20037;-67
2022/07/05 10:37:58;;;;;;;2.97;0.70;;;25.70;93.40;;;;;;5053735;28;20503;-67
2022/07/05 10:40:24;;;;;;;3.92;0.77;;;25.00;91.10;;;;;;5053583;28;20084;-68
2022/07/05 10:42:53;;;;;;;2.42;0.68;;;24.70;91.20;;;;;;5053689;28;20064;-67
2022/07/05 10:45:36;;;;;;;4.93;0.65;;;24.50;90.60;;;;;;5055623;28;20049;-66
2022/07/05 10:48:19;;;;;;;1.17;0.50;;;24.50;91.40;;;;;;5053690;28;20526;-66
2022/07/05 10:50:51;;;;;;;5.07;0.68;;;24.20;90.70;;;;;;5053630;28;20037;-67
2022/07/05 10:53:21;;;;;;;4.30;0.60;;;24.20;90.60;;;;;;5053383;28;20140;-67
2022/07/05 10:56:05;;;;;;;1.70;0.50;;;24.60;90.40;;;;;;5053622;28;20041;-67
2022/07/05 10:58:37;;;;;;;3.50;0.60;;;24.60;90.00;;;;;;5053493;28;20067;-67
2022/07/05 11:01:12;;;;;;;4.05;0.80;;;24.80;90.80;;;;;;5053443;28;20045;-67
2022/07/05 11:03:40;;;;;;;1.15;0.50;;;24.60;90.30;;;;;;5053370;28;20044;-66
2022/07/05 11:06:07;;;;;;;2.78;0.60;;;25.10;90.30;;;;;;5053440;28;20044;-67
2022/07/05 11:09:05;;;;;;;3.67;0.63;;;25.00;90.00;;;;;;5055498;28;20040;-66
2022/07/05 11:11:31;;;;;;;1.42;0.50;;;25.40;90.10;;;;;;5057127;28;20060;-67
2022/07/05 11:13:59;;;;;;;6.30;1.13;;;25.00;89.20;;;;;;5057208;28;20116;-67
2022/07/05 11:16:30;;;;;;;2.15;0.80;;;25.30;89.20;;;;;;5057039;28;20048;-67
2022/07/05 11:19:07;;;;;;;3.25;0.73;;;24.90;88.40;;;;;;5056869;28;20123;-66
2022/07/05 11:21:34;;;;;;;1.67;0.73;;;24.90;87.60;;;;;;5056830;28;20044;-67
2022/07/05 11:24:27;;;;;;;0.95;0.47;;;24.80;89.30;;;;;;5056923;28;20513;-67
2022/07/05 11:26:57;;;;;;;3.08;0.50;;;24.70;89.70;;;;;;5054103;28;20047;-67
2022/07/05 11:29:44;;;;;;;2.50;0.60;;;24.80;89.80;;;;;;5056607;28;20408;-66
2022/07/05 11:32:13;;;;;;;2.47;0.77;;;25.10;90.30;;;;;;5056713;28;20037;-67
2022/07/05 11:34:40;;;;;;;9.65;1.42;;;24.90;90.40;;;;;;5056888;28;20064;-67
2022/07/05 11:37:24;;;;;;;2.42;0.80;;;24.90;89.50;;;;;;5056494;28;20037;-67
2022/07/05 11:40:10;;;;;;;1.50;0.40;;;25.20;89.10;;;;;;5056507;28;20060;-66
2022/07/05 11:42:56;;;;;;;4.35;0.70;;;25.60;88.50;;;;;;5056534;28;20051;-66
2022/07/05 11:45:22;;;;;;;1.73;0.60;;;24.80;88.80;;;;;;5056371;28;20125;-67
2022/07/05 11:47:48;;;;;;;2.85;0.43;;;25.20;90.20;;;;;;5056278;28;20079;-67
2022/07/05 11:50:14;;;;;;;3.60;0.77;;;25.60;90.50;;;;;;5056340;28;20060;-67
2022/07/05 11:52:41;;;;;;;1.50;0.50;;;25.70;90.80;;;;;;5056356;28;20044;-67
2022/07/05 11:55:11;;;;;;;3.38;0.60;;;25.20;90.20;;;;;;5056289;28;20034;-66
2022/07/05 11:57:47;;;;;;;6.15;0.98;;;25.40;90.40;;;;;;5056295;28;20044;-66
2022/07/05 12:00:13;;;;;;;0.82;0.43;;;25.60;90.00;;;;;;5056257;28;20049;-66
2022/07/05 12:02:45;;;;;;;3.45;0.55;;;25.20;88.00;;;;;;5056004;28;20033;-67
2022/07/05 12:05:15;;;;;;;3.85;0.90;;;25.50;90.90;;;;;;5056047;28;20041;-66
2022/07/05 12:07:49;;;;;;;4.07;0.75;;;25.50;90.00;;;;;;5055805;28;20492;-66
2022/07/05 12:13:07;;;;;;;4.88;0.85;;;25.50;90.30;;;;;;5055958;28;20124;-67
2022/07/05 12:15:33;;;;;;;3.50;0.60;;;25.50;88.90;;;;;;5055973;28;20037;-66
2022/07/05 12:18:04;;;;;;;2.00;0.63;;;25.10;88.90;;;;;;5056051;28;20051;-67
2022/07/05 12:20:32;;;;;;;2.70;1.02;;;25.30;89.50;;;;;;5055016;28;20045;-67
2022/07/05 12:23:00;;;;;;;3.17;0.70;;;25.20;89.80;;;;;;5056044;28;20419;-67
2022/07/05 12:25:28;;;;;;;3.53;0.70;;;25.00;89.40;;;;;;5055802;28;20094;-67
2022/07/05 12:27:56;;;;;;;4.03;1.05;;;25.30;88.70;;;;;;5055563;28;20123;-67
2022/07/05 12:30:23;;;;;;;3.60;0.60;;;25.40;89.60;;;;;;5055625;28;20503;-67
2022/07/05 12:33:01;;;;;;;4.90;0.65;;;25.30;87.60;;;;;;5055584;28;20067;-67
2022/07/05 12:35:30;;;;;;;2.00;0.77;;;25.20;88.30;;;;;;5055527;28;20037;-67
2022/07/05 12:38:01;;;;;;;5.13;0.60;;;25.20;89.30;;;;;;5055314;28;20037;-66
2022/07/05 12:40:28;;;;;;;3.70;0.60;;;25.10;90.10;;;;;;5055301;28;20059;-67
2022/07/05 12:43:01;;;;;;;3.83;0.50;;;25.10;90.00;;;;;;5055364;28;20045;-66
2022/07/05 12:45:27;;;;;;;1.90;0.45;;;25.10;88.80;;;;;;5055439;28;20051;-68
2022/07/05 12:47:57;;;;;;;3.08;0.60;;;25.20;87.30;;;;;;5055375;28;20128;-68
2022/07/05 12:50:24;;;;;;;1.63;0.75;;;25.30;87.80;;;;;;5055278;28;20040;-67
2022/07/05 12:58:31;;;;;;;3.63;0.63;;;25.20;87.90;;;;;;5055036;28;20128;-66
2022/07/05 13:00:57;;;;;;;1.50;0.70;;;25.30;90.00;;;;;;5054741;28;20503;-66
2022/07/05 13:03:23;;;;;;;5.95;0.90;;;25.20;90.10;;;;;;5054731;28;20057;-67
2022/07/05 13:06:02;;;;;;;2.13;0.70;;;25.10;88.50;;;;;;5054788;28;20048;-66